Data for 07/08/2006

Time Sea-Level Adjusted Pressure Absolute Pressure Temperature Relative Humidity Dew Point   
(mb) (inHg) (mb) (inHg) (C) (F) (%) (C) (F)
00:05 1027 30.33 856 25.28 16.7 62 58 8.6 47.4
00:10 1027 30.33 856 25.28 16.7 62.1 57 8.2 46.7
00:15 1027 30.33 856 25.28 16.7 62 57 8.1 46.7
00:20 1027 30.33 856 25.28 16.7 62.1 55 7.8 46.1
00:25 1027 30.33 856 25.28 16.7 62.1 55 7.7 45.8
00:30 1027 30.33 856 25.28 16.9 62.3 54 7.6 45.8
00:35 1027 30.33 856 25.28 16.8 62.2 55 7.7 45.8
00:40 1027 30.33 856 25.28 16.6 61.8 55 7.6 45.7
00:45 1027 30.33 856 25.28 16.1 61.1 59 8.2 46.7
00:50 1027 30.33 856 25.28 15.6 60.1 62 8.3 47
00:55 1027 30.33 856 25.28 15.4 59.7 62 8.3 46.9
01:00 1027 30.33 856 25.28 15.5 59.9 59 7.6 45.7
01:05 1027 30.33 856 25.28 15.8 60.4 60 8 46.4
01:10 1027 30.33 856 25.28 15.7 60.2 61 8.3 46.9
01:15 1027 30.33 856 25.28 15.6 60.1 59 7.8 46
01:20 1027 30.33 856 25.28 15.5 59.8 59 7.7 45.8
01:25 1027 30.33 856 25.28 15.8 60.4 57 7.3 45.2
01:30 1027 30.33 856 25.28 15.9 60.6 58 7.8 46
01:35 1027 30.33 856 25.28 15.7 60.2 60 7.9 46.3
01:40 1027 30.33 856 25.28 15.2 59.4 59 7.4 45.4
01:45 1027 30.33 856 25.28 15 58.9 62 7.8 46
01:50 1027 30.33 856 25.28 15 58.9 61 7.5 45.4
01:55 1027 30.33 856 25.28 15.3 59.5 60 7.7 45.8
02:00 1027 30.33 856 25.28 15.3 59.5 59 7.5 45.5
02:05 1027 30.33 856 25.28 15.3 59.6 58 7.3 45.1
02:10 1027 30.33 856 25.28 15.5 59.9 60 8 46.3
02:15 1027 30.33 856 25.28 15.3 59.5 59 7.5 45.4
02:20 1027 30.33 856 25.28 15 59 60 7.4 45.3
02:25 1027 30.33 856 25.28 14.7 58.5 63 7.8 46.1
02:30 1027 30.33 856 25.28 14.3 57.7 64 7.6 45.6
02:35 1027 30.33 856 25.28 14 57.1 65 7.5 45.5
02:40 1027 30.33 856 25.28 13.8 56.8 65 7.4 45.2
02:45 1027 30.33 856 25.28 14 57.2 63 7.2 44.9
02:50 1027 30.33 856 25.28 14.1 57.5 63 7.4 45.3
02:55 1027 30.33 856 25.28 14 57.1 64 7.3 45.1
03:00 1027 30.33 856 25.28 14.1 57.4 63 7.2 45
03:05 1027 30.33 856 25.28 14.2 57.5 63 7.3 45.1
03:10 1027 30.33 856 25.28 13.9 56.9 65 7.4 45.3
03:15 1027 30.33 856 25.28 13.7 56.7 65 7.3 45.2
03:20 1027 30.33 856 25.28 13.7 56.7 65 7.2 45
03:25 1027 30.33 856 25.28 14.1 57.4 61 6.8 44.3
03:30 1027 30.33 856 25.28 14.5 58 60 6.9 44.5
03:35 1027 30.33 856 25.28 14.4 57.9 61 7.1 44.8
03:40 1027 30.33 856 25.28 14.3 57.8 62 7.3 45.1
03:45 1027 30.33 856 25.28 14.7 58.4 60 7 44.6
03:50 1027 30.33 856 25.28 14.6 58.3 61 7.2 44.9
03:55 1027 30.33 856 25.28 14.6 58.3 60 7 44.5
04:00 1027 30.33 856 25.28 14.5 58.1 63 7.5 45.5
04:05 1027 30.33 856 25.28 14.3 57.7 65 7.9 46.2
04:10 1027 30.33 856 25.28 14 57.2 64 7.3 45.2
04:15 1027 30.33 856 25.28 13.8 56.8 63 7 44.6
04:20 1027 30.33 856 25.28 13.8 56.9 64 7.2 45
04:25 1027 30.33 856 25.28 13.4 56.2 66 7.2 44.9
04:30 1027 30.33 856 25.28 13.6 56.4 64 7 44.6
04:35 1027 30.33 856 25.28 13.2 55.8 68 7.5 45.5
04:40 1027 30.33 856 25.28 12.9 55.1 68 7.2 45
04:45 1027 30.33 856 25.28 12.8 55 69 7.2 45
04:50 1027 30.33 856 25.28 12.6 54.7 69 7.1 44.8
04:55 1027 30.33 856 25.28 12.9 55.2 68 7.2 45
05:00 1027 30.33 856 25.28 13.1 55.6 67 7.2 44.9
05:05 1027 30.33 856 25.28 13 55.4 67 7 44.6
05:10 1027 30.33 856 25.28 13.2 55.7 66 7 44.7
05:15 1027 30.33 856 25.28 13.4 56.1 65 6.9 44.5
05:20 1027 30.33 856 25.28 13.4 56.2 66 7.2 45
05:25 1027 30.33 856 25.28 13.2 55.7 67 7.1 44.8
05:30 1027 30.33 856 25.28 12.9 55.3 67 7 44.6
05:35 1027 30.33 856 25.28 13 55.4 67 7.1 44.8
05:40 1027 30.33 856 25.28 12.7 54.8 69 7.2 44.9
05:45 1027 30.33 856 25.28 12.5 54.5 71 7.3 45.2
05:50 1027 30.33 856 25.28 12.4 54.3 71 7.2 45
05:55 1027 30.33 856 25.28 12.2 53.9 71 7.1 44.8
06:00 1027 30.33 856 25.28 12.2 54 70 7 44.6
06:05 1027 30.33 856 25.28 12.5 54.4 69 7 44.6
06:10 1027 30.33 856 25.28 12.7 54.9 74 8.2 46.7
06:15 1027 30.33 856 25.28 12.8 55 67 7 44.5
06:20 1027 30.33 856 25.28 12.9 55.2 67 7 44.6
06:25 1027 30.33 856 25.28 12.9 55.2 68 7.2 44.9
06:30 1027 30.33 856 25.28 12.8 55.1 68 7.1 44.7
06:35 1027 30.33 856 25.28 12.9 55.2 68 7.1 44.8
06:40 1027 30.33 856 25.28 13 55.3 68 7.3 45.2
06:45 1027 30.33 856 25.28 13 55.5 68 7.3 45.2
06:50 1027 30.33 856 25.28 13.1 55.6 67 7.2 45
06:55 1027 30.33 856 25.28 13.4 56.2 67 7.4 45.3
07:00 1027 30.33 856 25.28 13.5 56.3 66 7.4 45.4
07:05 1027 30.33 856 25.28 13.7 56.7 66 7.5 45.4
07:10 1027 30.33 856 25.28 14 57.2 66 7.7 45.9
07:15 1027 30.33 856 25.28 13.8 56.8 67 7.8 46
07:20 1027 30.33 857 25.31 13.9 57 67 7.9 46.3
07:25 1027 30.33 857 25.31 14.1 57.4 67 8.1 46.6
07:30 1027 30.33 857 25.31 14.4 57.8 69 8.8 47.9
07:35 1027 30.33 857 25.31 14.6 58.3 65 8.3 46.9
07:40 1027 30.33 857 25.31 14.9 58.9 63 8 46.3
07:45 1027 30.33 857 25.31 15.4 59.7 61 7.9 46.3
07:50 1027 30.33 857 25.31 15.5 59.9 62 8.2 46.8
07:55 1027 30.33 857 25.31 15.9 60.6 65 9.3 48.7
08:00 1027 30.33 857 25.31 16.4 61.4 59 8.4 47.2
08:05 1027 30.33 857 25.31 16.4 61.6 60 8.7 47.7
08:10 1027 30.33 857 25.31 16.9 62.5 57 8.5 47.3
08:15 1027 30.33 857 25.31 17.1 62.7 61 9.5 49.1
08:20 1027 30.33 857 25.31 17.4 63.3 54 8.1 46.5
08:25 1027 30.33 857 25.31 17.9 64.2 53 8.2 46.8
08:30 1027 30.33 857 25.31 18.8 65.9 51 8.5 47.3
08:35 1027 30.33 857 25.31 19.5 67 49 8.6 47.4
08:40 1027 30.33 857 25.31 19.4 66.9 47 7.8 46.1
08:45 1027 30.33 857 25.31 19.6 67.3 53 9.8 49.6
08:50 1027 30.33 857 25.31 19.4 66.9 48 8.3 47
08:55 1027 30.33 857 25.31 19.8 67.7 47 8.3 46.9
09:00 1027 30.33 857 25.31 20 67.9 44 7.4 45.3
09:05 1027 30.33 857 25.31 20.6 69 41 6.9 44.4
09:10 1027 30.33 857 25.31 20.7 69.2 44 8 46.3
09:15 1027 30.33 857 25.31 20.3 68.5 46 8.4 47.1
09:20 1027 30.33 857 25.31 20.7 69.3 44 8.1 46.6
09:25 1027 30.33 857 25.31 20.8 69.5 43 7.9 46.2
09:30 1027 30.33 857 25.31 21.6 70.9 42 8.5 47.3
09:35 1027 30.33 857 25.31 21.4 70.5 44 9 48.1
09:40 1027 30.33 857 25.31 20.3 68.6 49 9.2 48.6
09:45 1027 30.33 857 25.31 20.9 69.6 46 8.9 47.9
09:50 1027 30.33 857 25.31 21.5 70.6 44 8.9 48
09:55 1027 30.33 856 25.28 20.8 69.5 47 9.3 48.8
10:00 1027 30.33 856 25.28 21 69.7 45 8.9 48
10:05 1027 30.33 856 25.28 21.5 70.6 45 9.1 48.4
10:10 1027 30.33 856 25.28 21.4 70.5 45 9.3 48.7
10:15 1027 30.33 856 25.28 21.4 70.4 44 8.8 47.8
10:20 1027 30.33 856 25.28 21.5 70.8 43 8.5 47.4
10:25 1027 30.33 856 25.28 22.2 71.9 40 8.1 46.6
10:30 1027 30.33 856 25.28 22.6 72.7 38 7.9 46.2
10:35 1027 30.33 856 25.28 22.4 72.4 37 7 44.7
10:40 1027 30.33 856 25.28 23.2 73.7 35 7.1 44.8
10:45 1027 30.33 856 25.28 23.1 73.7 38 8.2 46.8
10:50 1027 30.33 856 25.28 22.9 73.1 36 7.3 45.2
10:55 1027 30.33 856 25.28 23.3 73.9 37 8.1 46.6
11:00 1027 30.33 856 25.28 24 75.3 34 7.6 45.7
11:05 1027 30.33 856 25.28 24.1 75.5 34 7.4 45.3
11:10 1027 30.33 856 25.28 24.6 76.3 33 7.4 45.3
11:15 1027 30.33 856 25.28 24 75.2 34 7.5 45.5
11:20 1027 30.33 856 25.28 23.7 74.7 35 7.6 45.7
11:25 1027 30.33 856 25.28 24 75.2 34 7.4 45.2
11:30 1027 30.33 856 25.28 24.6 76.3 32 7.3 45.1
11:35 1027 30.33 856 25.28 25.1 77.1 33 8.1 46.6
11:40 1027 30.33 856 25.28 25 77 33 7.7 45.8
11:45 1027 30.33 856 25.28 25.3 77.6 32 7.9 46.3
11:50 1027 30.33 856 25.28 25.5 77.9 33 8.2 46.8
11:55 1027 30.33 856 25.28 25.3 77.5 33 8.3 46.9
12:00 1027 30.33 856 25.28 25.2 77.4 35 8.7 47.7
12:05 1027 30.33 856 25.28 25.5 78 31 7.6 45.7
12:10 1027 30.33 856 25.28 25.8 78.4 32 7.9 46.2
12:15 1026 30.3 856 25.28 26.1 79 30 7.5 45.4
12:20 1026 30.3 856 25.28 25.7 78.2 32 7.8 46
12:25 1026 30.3 855 25.25 25.6 78.2 29 6.5 43.7
12:30 1026 30.3 855 25.25 26.2 79.1 29 6.9 44.5
12:35 1026 30.3 855 25.25 26.4 79.5 29 7.1 44.9
12:40 1026 30.3 855 25.25 26.1 78.9 30 7.3 45.1
12:45 1026 30.3 855 25.25 26.3 79.3 30 7.4 45.4
12:50 1026 30.3 855 25.25 26 78.7 29 6.8 44.2
12:55 1026 30.3 855 25.25 27 80.5 25 5.5 41.9
13:00 1026 30.3 855 25.25 27.6 81.7 26 6.5 43.8
13:05 1026 30.3 855 25.25 27.4 81.2 22 4 39.3
13:10 1026 30.3 855 25.25 27.2 81 22 4.2 39.6
13:15 1026 30.3 855 25.25 27.5 81.5 24 5.7 42.2
13:20 1026 30.3 855 25.25 27.4 81.4 25 5.7 42.3
13:25 1026 30.3 855 25.25 27.7 81.9 25 6.4 43.4
13:30 1026 30.3 855 25.25 27.6 81.7 23 5.1 41.2
13:35 1026 30.3 855 25.25 26.8 80.2 24 4.6 40.2
13:40 1026 30.3 855 25.25 27.1 80.8 23 4.5 40.1
13:45 1026 30.3 855 25.25 27.6 81.6 21 3.8 38.9
13:50 1026 30.3 855 25.25 27.3 81.1 20 2.4 36.4
13:55 1025 30.27 855 25.25 26.4 79.6 21 2.7 36.9
14:00 1025 30.27 855 25.25 26.1 79.1 23 3.6 38.4
14:05 1025 30.27 855 25.25 27.4 81.3 23 4.6 40.2
14:10 1025 30.27 855 25.25 28.2 82.7 23 5.2 41.4
14:15 1025 30.27 855 25.25 27.5 81.5 22 4.1 39.4
14:20 1025 30.27 854 25.22 27 80.6 22 3.6 38.5
14:25 1025 30.27 854 25.22 27.6 81.6 21 3.8 38.9
14:30 1025 30.27 854 25.22 27.8 82 19 2.6 36.7
14:35 1025 30.27 854 25.22 28 82.5 20 3 37.4
14:40 1025 30.27 854 25.22 28.3 82.9 18 2.3 36.1
14:45 1025 30.27 854 25.22 28.3 83 18 2.4 36.3
14:50 1025 30.27 854 25.22 28.5 83.4 17 1.8 35.3
14:55 1025 30.27 854 25.22 29.1 84.3 18 2.8 37.1
15:00 1025 30.27 854 25.22 29.2 84.6 18 3 37.3
15:05 1025 30.27 854 25.22 29 84.3 16 1 33.8
15:10 1025 30.27 854 25.22 28.9 83.9 16 0.9 33.6
15:15 1025 30.27 854 25.22 28.7 83.6 17 1.9 35.4
15:20 1025 30.27 854 25.22 29.2 84.5 17 1.7 35
15:25 1025 30.27 854 25.22 29.8 85.6 16 1.4 34.5
15:30 1025 30.27 854 25.22 29.6 85.2 16 1.2 34.2
15:35 1025 30.27 854 25.22 29.6 85.3 15 0.5 32.8
15:40 1025 30.27 854 25.22 28.5 83.4 18 2 35.7
15:45 1025 30.27 854 25.22 28.6 83.5 17 1.2 34.2
15:50 1025 30.27 854 25.22 29.5 85 16 1.4 34.4
15:55 1025 30.27 854 25.22 29.1 84.3 16 0.9 33.5
16:00 1025 30.27 854 25.22 27.7 81.9 16 0.1 32.1
16:05 1025 30.27 854 25.22 27.9 82.2 16 0.1 32.2
16:10 1025 30.27 854 25.22 28.3 82.9 16 0.2 32.4
16:15 1024 30.24 854 25.22 28.5 83.3 16 0.3 32.6
16:20 1024 30.24 854 25.22 28.7 83.7 15 -0.3 31.4
16:25 1024 30.24 854 25.22 28.4 83.1 15 -0.2 31.6
16:30 1024 30.24 854 25.22 27.8 82.1 15 -0.4 31.2
16:35 1024 30.24 854 25.22 28.4 83 15 -0.1 31.8
16:40 1024 30.24 854 25.22 29 84.2 14 -0.4 31.2
16:45 1024 30.24 854 25.22 28.6 83.4 15 0.2 32.3
16:50 1024 30.24 854 25.22 29.1 84.3 14 -0.8 30.6
16:55 1024 30.24 853 25.19 29.2 84.5 13 -2.3 27.9
17:00 1024 30.24 853 25.19 29 84.1 14 -0.6 30.9
17:05 1024 30.24 853 25.19 29.1 84.4 13 -1.5 29.3
17:10 1024 30.24 853 25.19 29.1 84.3 14 -1.2 29.9
17:15 1024 30.24 853 25.19 29.8 85.6 14 -0.7 30.8
17:20 1024 30.24 853 25.19 30 86.1 13 -1 30.2
17:25 1024 30.24 853 25.19 30.1 86.1 14 -0.4 31.2
17:30 1024 30.24 853 25.19 29 84.3 13 -1.7 28.9
17:35 1024 30.24 853 25.19 28.5 83.4 14 -0.9 30.4
17:40 1024 30.24 853 25.19 28.7 83.7 14 -1.1 30.1
17:45 1024 30.24 853 25.19 29.3 84.7 12 -2.3 27.9
17:50 1024 30.24 853 25.19 29.7 85.4 13 -1 30.2
17:55 1024 30.24 853 25.19 29.7 85.4 13 -1.5 29.3
18:00 1024 30.24 853 25.19 29.6 85.3 12 -2 28.4
18:05 1024 30.24 853 25.19 29.6 85.3 14 -0.4 31.3
18:10 1024 30.24 853 25.19 29.8 85.7 13 -1.6 29.1
18:15 1024 30.24 853 25.19 29.9 85.8 12 -1.9 28.6
18:20 1024 30.24 853 25.19 29.9 85.8 12 -2.4 27.7
18:25 1024 30.24 853 25.19 30.1 86.2 12 -2.6 27.4
18:30 1024 30.24 853 25.19 29.9 85.9 12 -2.4 27.7
18:35 1023 30.21 853 25.19 29.5 85 12 -3.1 26.4
18:40 1023 30.21 853 25.19 29.9 85.8 12 -2.5 27.4
18:45 1023 30.21 853 25.19 29.6 85.2 12 -2.7 27.2
18:50 1023 30.21 852 25.16 29.5 85.1 12 -2.1 28.3
18:55 1023 30.21 852 25.16 29.1 84.5 13 -2.1 28.3
19:00 1023 30.21 852 25.16 29.3 84.7 12 -2.3 27.9
19:05 1023 30.21 852 25.16 29.4 84.8 12 -3 26.7
19:10 1023 30.21 852 25.16 29.5 85.1 11 -3.5 25.7
19:15 1023 30.21 852 25.16 29.6 85.2 11 -3.5 25.8
19:20 1023 30.21 852 25.16 29.5 85.1 12 -2.3 27.9
19:25 1023 30.21 852 25.16 29.3 84.7 13 -2.1 28.2
19:30 1023 30.21 852 25.16 29 84.2 14 -0.9 30.3
19:35 1023 30.21 852 25.16 28.4 83.2 14 -1.3 29.7
19:40 1023 30.21 852 25.16 28.2 82.8 13 -2.2 28.1
19:45 1023 30.21 852 25.16 28 82.4 15 -0.6 30.8
19:50 1023 30.21 852 25.16 27.8 82.1 15 -0.9 30.4
19:55 1023 30.21 852 25.16 27.7 81.8 15 -1.1 30
20:00 1023 30.21 852 25.16 27.5 81.5 16 -0.4 31.2
20:05 1023 30.21 852 25.16 27.3 81.1 17 0.1 32.2
20:10 1023 30.21 852 25.16 27.3 81.1 19 1.8 35.2
20:15 1023 30.21 852 25.16 26.8 80.2 22 3.8 38.8
20:20 1023 30.21 852 25.16 26.5 79.7 22 3.3 38
20:25 1023 30.21 853 25.19 26.2 79.2 26 5.6 42.1
20:30 1023 30.21 853 25.19 26 78.7 23 3.3 37.9
20:35 1023 30.21 853 25.19 25.8 78.5 24 4 39.2
20:40 1023 30.21 852 25.16 25.7 78.3 27 5.6 42
20:45 1023 30.21 852 25.16 25.3 77.5 32 7.7 45.8
20:50 1023 30.21 852 25.16 24.8 76.7 33 7.8 46.1
20:55 1023 30.21 853 25.19 24.4 75.9 30 6.1 43
21:00 1023 30.21 852 25.16 24 75.3 32 6.7 44.1
21:05 1023 30.21 852 25.16 23.7 74.6 35 7.6 45.7
21:10 1023 30.21 853 25.19 23 73.5 34 6.4 43.5
21:15 1023 30.21 853 25.19 22.4 72.3 36 6.7 44.1
21:20 1023 30.21 853 25.19 21.9 71.3 38 7 44.6
21:25 1023 30.21 853 25.19 21.2 70.1 37 6.1 43
21:30 1023 30.21 853 25.19 20.6 69 41 7 44.6
21:35 1024 30.24 853 25.19 20.3 68.5 36 4.9 40.8
21:40 1023 30.21 853 25.19 20.8 69.5 34 4.7 40.5
21:45 1024 30.24 853 25.19 20.8 69.5 33 4.2 39.6
21:50 1024 30.24 853 25.19 20.6 69 34 4.2 39.6
21:55 1024 30.24 853 25.19 20.3 68.5 33 3.6 38.6
22:00 1024 30.24 853 25.19 20.2 68.3 38 5.7 42.3
22:05 1024 30.24 853 25.19 19.7 67.5 35 4.1 39.5
22:10 1024 30.24 853 25.19 19.8 67.6 32 2.7 36.8
22:15 1024 30.24 853 25.19 19.8 67.6 31 2.5 36.4
22:20 1024 30.24 853 25.19 19.1 66.4 34 2.9 37.3
22:25 1024 30.24 853 25.19 19 66.2 32 2.1 35.8
22:30 1024 30.24 853 25.19 19.5 67.1 31 1.9 35.4
22:35 1024 30.24 853 25.19 19.9 67.9 30 2.1 35.9
22:40 1024 30.24 853 25.19 20.1 68.1 30 2.1 35.7
22:45 1024 30.24 853 25.19 20.3 68.6 29 1.9 35.4
22:50 1024 30.24 853 25.19 20.4 68.6 29 1.8 35.3
22:55 1024 30.24 853 25.19 20.3 68.6 28 1.6 35
23:00 1024 30.24 853 25.19 20.3 68.5 29 1.9 35.3
23:05 1024 30.24 853 25.19 20.3 68.5 28 1.4 34.5
23:10 1024 30.24 853 25.19 20.4 68.7 28 1.2 34.2
23:15 1024 30.24 853 25.19 20.6 69.1 27 1.1 34
23:20 1024 30.24 853 25.19 20.5 68.9 28 1.5 34.7
23:25 1024 30.24 853 25.19 20.5 68.8 28 1.4 34.5
23:30 1024 30.24 853 25.19 20.6 69 28 1.5 34.8
23:35 1024 30.24 853 25.19 20.6 69.1 28 1.6 34.9
23:40 1024 30.24 853 25.19 20.6 69 28 1.5 34.8
23:45 1024 30.24 853 25.19 20.6 69.1 29 1.9 35.5
23:50 1024 30.24 853 25.19 20.3 68.5 29 1.8 35.2
23:55 1024 30.24 853 25.19 20.3 68.5 29 1.9 35.4
24:00 1024 30.24 853 25.19 20.3 68.5 29 1.7 35.1